createdAt,value
2022-08-17T00:00:49.663Z,3.17
2022-08-17T00:12:40.986Z,3.17
2022-08-17T00:22:57.161Z,3.17
2022-08-17T00:33:56.682Z,3.16
2022-08-17T00:44:57.715Z,3.15
2022-08-17T00:55:59.332Z,3.15
2022-08-17T01:07:01.801Z,3.15
2022-08-17T01:18:02.667Z,3.15
2022-08-17T01:29:04.019Z,3.15
2022-08-17T01:40:06.147Z,3.14
2022-08-17T01:51:07.741Z,3.14
2022-08-17T02:02:09.233Z,3.13
2022-08-17T02:13:11.268Z,3.13
2022-08-17T02:24:13.223Z,3.13
2022-08-17T02:35:14.356Z,3.13
2022-08-17T02:46:15.484Z,3.12
2022-08-17T02:57:14.632Z,3.12
2022-08-17T03:08:16.679Z,3.11
2022-08-17T03:19:17.012Z,3.11
2022-08-17T03:29:53.705Z,3.09
2022-08-17T03:40:55.826Z,3.08
2022-08-17T03:51:33.473Z,3.08
2022-08-17T04:02:32.280Z,3.08
2022-08-17T04:13:33.565Z,3.07
2022-08-17T04:24:33.564Z,3.08
2022-08-17T04:35:35.394Z,3.08
2022-08-17T04:46:37.561Z,3.09
2022-08-17T04:57:44.523Z,3.09
2022-08-17T05:08:47.536Z,3.09
2022-08-17T05:19:51.881Z,3.10
2022-08-17T05:30:52.404Z,3.10
2022-08-17T05:41:50.632Z,3.11
2022-08-17T05:52:52.918Z,3.12
2022-08-17T06:03:51.989Z,3.13
2022-08-17T06:14:55.247Z,3.14
2022-08-17T06:25:57.437Z,3.15
2022-08-17T06:36:59.198Z,3.17
2022-08-17T06:48:01.702Z,3.18
2022-08-17T06:59:01.480Z,3.19
2022-08-17T07:10:03.436Z,3.21
2022-08-17T07:21:04.939Z,3.22
2022-08-17T07:32:04.816Z,3.24
2022-08-17T07:43:06.435Z,3.25
2022-08-17T07:54:14.351Z,3.26
2022-08-17T08:05:13.760Z,3.28
2022-08-17T08:16:18.955Z,3.29
2022-08-17T08:27:18.792Z,3.30
2022-08-17T08:38:20.879Z,3.31
2022-08-17T08:49:33.820Z,3.33
2022-08-17T09:00:26.233Z,3.34
2022-08-17T09:11:27.312Z,3.35
2022-08-17T09:22:26.224Z,3.37
2022-08-17T09:33:25.790Z,3.38
2022-08-17T09:44:23.228Z,3.34
2022-08-17T09:55:22.434Z,3.34
2022-08-17T10:06:23.283Z,3.34
2022-08-17T10:17:12.872Z,3.34
2022-08-17T10:28:19.791Z,3.34
2022-08-17T10:39:25.163Z,3.34
2022-08-17T10:50:22.894Z,3.34
2022-08-17T11:01:23.771Z,3.34
2022-08-17T11:12:25.403Z,3.34
2022-08-17T11:23:26.499Z,3.34
2022-08-17T11:34:22.787Z,3.34
2022-08-17T11:45:31.832Z,3.34
2022-08-17T11:56:21.793Z,3.34
2022-08-17T12:07:22.773Z,3.34
2022-08-17T12:18:24.000Z,3.34
2022-08-17T12:29:35.694Z,3.34
2022-08-17T12:40:31.163Z,3.34
2022-08-17T12:51:28.153Z,3.34
2022-08-17T13:02:28.939Z,3.35
2022-08-17T13:13:28.740Z,3.34
2022-08-17T13:24:29.352Z,3.35
2022-08-17T13:35:39.353Z,3.34
2022-08-17T13:46:38.594Z,3.35
2022-08-17T13:57:36.238Z,3.34
2022-08-17T14:08:33.987Z,3.34
2022-08-17T14:19:10.223Z,3.35
2022-08-17T14:30:11.554Z,3.34
2022-08-17T14:41:18.720Z,3.34
2022-08-17T14:52:22.117Z,3.34
2022-08-17T15:03:25.766Z,3.33
2022-08-17T15:14:21.076Z,3.33
2022-08-17T15:25:14.667Z,3.34
2022-08-17T15:36:08.409Z,3.36
2022-08-17T15:47:04.852Z,3.39
2022-08-17T15:58:04.674Z,3.36
2022-08-17T16:09:02.551Z,3.39
2022-08-17T16:20:01.667Z,3.39
2022-08-17T16:30:59.866Z,3.39
2022-08-17T16:41:51.145Z,3.39
2022-08-17T16:52:50.557Z,3.38
2022-08-17T17:03:49.123Z,3.37
2022-08-17T17:14:49.203Z,3.37
2022-08-17T17:25:46.899Z,3.37
2022-08-17T17:36:43.432Z,3.36
2022-08-17T17:47:38.858Z,3.35
2022-08-17T17:58:36.725Z,3.34
2022-08-17T18:09:34.393Z,3.33
2022-08-17T18:20:36.068Z,3.32
2022-08-17T18:31:30.282Z,3.31
2022-08-17T18:42:19.681Z,3.30
2022-08-17T18:53:18.293Z,3.30
2022-08-17T19:03:54.709Z,3.28
2022-08-17T19:14:31.150Z,3.27
2022-08-17T19:25:29.448Z,3.27
2022-08-17T19:36:34.585Z,3.25
2022-08-17T19:47:51.483Z,3.26
2022-08-17T19:58:29.904Z,3.26
2022-08-17T20:09:29.816Z,3.25
2022-08-17T20:20:26.750Z,3.25
2022-08-17T20:31:30.699Z,3.25
2022-08-17T20:42:27.526Z,3.24
2022-08-17T20:53:26.874Z,3.24
2022-08-17T21:04:21.969Z,3.23
2022-08-17T21:15:21.466Z,3.23
2022-08-17T21:26:16.467Z,3.23
2022-08-17T21:37:16.682Z,3.23
2022-08-17T21:48:18.069Z,3.22
2022-08-17T21:59:19.073Z,3.22
2022-08-17T22:10:19.438Z,3.21
2022-08-17T22:21:18.883Z,3.21
2022-08-17T22:32:22.512Z,3.21
2022-08-17T22:43:25.925Z,3.21
2022-08-17T22:54:26.131Z,3.19
2022-08-17T23:05:27.052Z,3.19
2022-08-17T23:16:25.865Z,3.19
2022-08-17T23:27:26.094Z,3.19
2022-08-17T23:38:26.663Z,3.18
2022-08-17T23:49:28.860Z,3.18
